Time;durP1;ratioP1;P1;durP2;ratioP2;P2;SDS_P1;SDS_P2;PMS_P1;PMS_P2;Temp;Humidity;BMP_temperature;BMP_pressure;BME280_temperature;BME280_humidity;BME280_pressure;Samples;Min_cycle;Max_cycle;Signal;HPM_P1;HPM_P2
2021/11/21 00:01:08;;;;;;;311.23;38.17;;;9.80;99.90;;;;;;6288477;22;20393;-72
2021/11/21 00:03:37;;;;;;;151.43;30.13;;;9.80;99.90;;;;;;6287931;22;20466;-71
2021/11/21 00:06:07;;;;;;;133.27;25.37;;;9.80;99.90;;;;;;6287991;22;20393;-71
2021/11/21 00:08:36;;;;;;;208.03;38.30;;;9.80;99.90;;;;;;6288096;22;20487;-72
2021/11/21 00:11:04;;;;;;;223.37;29.20;;;9.80;99.90;;;;;;6250739;22;20447;-71
2021/11/21 00:13:32;;;;;;;239.53;35.33;;;9.80;99.90;;;;;;6250405;22;20432;-72
2021/11/21 00:16:01;;;;;;;295.10;37.27;;;9.80;99.90;;;;;;6288023;22;20424;-71
2021/11/21 00:18:29;;;;;;;138.27;28.07;;;9.80;99.90;;;;;;6287981;22;20879;-72
2021/11/21 00:20:57;;;;;;;253.83;33.67;;;9.80;99.90;;;;;;6250608;22;20412;-72
2021/11/21 00:23:25;;;;;;;319.70;40.97;;;9.80;99.90;;;;;;6250387;22;20451;-72
2021/11/21 00:25:55;;;;;;;199.90;28.30;;;9.80;99.90;;;;;;6287822;22;20509;-71
2021/11/21 00:28:23;;;;;;;177.03;30.87;;;9.80;99.90;;;;;;6250278;22;20400;-71
2021/11/21 00:30:51;;;;;;;160.53;28.83;;;9.80;99.90;;;;;;6250328;22;20425;-71
2021/11/21 00:33:20;;;;;;;189.17;30.97;;;9.80;99.90;;;;;;6287683;22;20417;-72
2021/11/21 00:35:48;;;;;;;155.73;32.10;;;9.80;99.90;;;;;;6287801;22;20500;-72
2021/11/21 00:38:16;;;;;;;200.43;28.13;;;9.80;99.90;;;;;;6288085;22;20483;-71
2021/11/21 00:40:45;;;;;;;311.47;40.73;;;9.80;99.90;;;;;;6277759;22;20420;-71
2021/11/21 00:43:15;;;;;;;213.37;29.43;;;9.80;99.90;;;;;;6287550;22;20508;-71
2021/11/21 00:45:43;;;;;;;263.70;32.40;;;9.80;99.90;;;;;;6249939;22;20440;-71
2021/11/21 00:48:11;;;;;;;132.87;29.93;;;9.80;99.90;;;;;;6287407;22;20420;-71
2021/11/21 00:50:39;;;;;;;254.87;37.00;;;9.80;99.90;;;;;;6287629;22;20896;-71
2021/11/21 00:53:07;;;;;;;266.43;36.03;;;9.90;99.90;;;;;;6287721;22;20412;-71
2021/11/21 00:55:38;;;;;;;245.27;33.07;;;9.80;99.90;;;;;;6287526;22;20430;-71
2021/11/21 00:58:11;;;;;;;193.60;35.67;;;9.80;99.90;;;;;;6250132;22;20432;-71
2021/11/21 01:00:43;;;;;;;305.73;42.17;;;9.90;99.90;;;;;;6287839;22;20388;-71
2021/11/21 01:03:13;;;;;;;206.43;38.57;;;9.90;99.90;;;;;;6287688;22;20409;-71
2021/11/21 01:05:42;;;;;;;196.53;33.80;;;9.90;99.90;;;;;;6287338;22;20426;-71
2021/11/21 01:08:10;;;;;;;269.90;42.13;;;9.90;99.90;;;;;;6287457;22;20422;-71
2021/11/21 01:10:39;;;;;;;313.67;35.53;;;9.90;99.90;;;;;;6287468;22;20485;-71
2021/11/21 01:13:07;;;;;;;182.07;31.63;;;9.90;99.90;;;;;;6276948;22;20487;-71
2021/11/21 01:15:36;;;;;;;282.87;47.37;;;9.90;99.90;;;;;;6288087;22;20400;-71
2021/11/21 01:18:06;;;;;;;292.53;44.50;;;9.90;99.90;;;;;;6287567;22;20455;-71
2021/11/21 01:20:36;;;;;;;321.97;41.80;;;9.90;99.90;;;;;;6249689;22;20413;-71
2021/11/21 01:23:05;;;;;;;384.40;58.70;;;9.90;99.90;;;;;;6287364;22;20471;-71
2021/11/21 01:25:33;;;;;;;339.27;47.93;;;9.90;99.90;;;;;;6276880;22;20960;-71
2021/11/21 01:28:02;;;;;;;297.37;39.63;;;9.90;99.90;;;;;;6287279;22;20888;-71
2021/11/21 01:30:31;;;;;;;351.63;44.27;;;9.90;99.90;;;;;;6250140;22;20876;-71
2021/11/21 01:33:02;;;;;;;292.83;46.53;;;9.90;99.90;;;;;;6287473;22;20932;-71
2021/11/21 01:35:32;;;;;;;209.90;31.07;;;9.90;99.90;;;;;;6287886;22;20407;-71
2021/11/21 01:38:01;;;;;;;313.83;52.37;;;9.90;99.90;;;;;;6249821;22;20412;-71
2021/11/21 01:40:29;;;;;;;270.97;46.13;;;9.90;99.90;;;;;;6287568;22;20868;-71
2021/11/21 01:42:58;;;;;;;276.97;41.13;;;9.90;99.90;;;;;;6287428;22;20413;-71
2021/11/21 01:45:27;;;;;;;234.73;38.77;;;9.90;99.90;;;;;;6286975;22;20432;-71
2021/11/21 01:47:55;;;;;;;418.70;47.43;;;9.90;99.90;;;;;;6287009;22;20483;-71
2021/11/21 01:50:27;;;;;;;256.77;39.30;;;9.90;99.90;;;;;;6287375;22;20443;-71
2021/11/21 01:52:58;;;;;;;209.60;44.30;;;9.90;99.90;;;;;;6249290;22;20460;-71
2021/11/21 01:55:27;;;;;;;273.17;38.73;;;9.90;99.90;;;;;;6249657;22;20492;-71
2021/11/21 01:57:57;;;;;;;208.50;38.73;;;9.90;99.90;;;;;;6249541;22;20495;-71
2021/11/21 02:00:29;;;;;;;286.37;48.97;;;9.80;99.90;;;;;;6287396;22;20939;-71
2021/11/21 02:02:57;;;;;;;314.73;45.33;;;9.80;99.90;;;;;;6286983;22;20752;-71
2021/11/21 02:05:26;;;;;;;236.90;33.43;;;9.90;99.90;;;;;;6249508;22;20772;-71
2021/11/21 02:07:54;;;;;;;184.57;40.47;;;9.80;99.90;;;;;;6286858;22;20388;-71
2021/11/21 02:10:24;;;;;;;317.37;46.10;;;9.80;99.90;;;;;;6286896;22;20488;-71
2021/11/21 02:12:53;;;;;;;205.97;38.70;;;9.80;99.90;;;;;;6288224;22;20515;-71
2021/11/21 02:15:24;;;;;;;471.43;61.63;;;9.80;99.90;;;;;;6287211;22;20400;-71
2021/11/21 02:17:53;;;;;;;195.57;34.97;;;9.80;99.90;;;;;;6287623;22;20391;-71
2021/11/21 02:20:25;;;;;;;118.33;27.53;;;9.90;99.90;;;;;;6287345;22;20428;-71
2021/11/21 02:22:54;;;;;;;304.73;39.40;;;9.80;99.90;;;;;;6281858;22;20457;-71
2021/11/21 02:25:22;;;;;;;265.93;36.97;;;9.80;99.90;;;;;;6289189;22;20428;-71
2021/11/21 02:27:50;;;;;;;310.00;42.50;;;9.80;99.90;;;;;;6287240;22;20399;-71
2021/11/21 02:30:18;;;;;;;281.73;41.00;;;9.80;99.90;;;;;;6286962;22;20432;-71
2021/11/21 02:32:48;;;;;;;229.37;41.00;;;9.80;99.90;;;;;;6276799;22;20393;-71
2021/11/21 02:35:17;;;;;;;304.83;40.40;;;9.80;99.90;;;;;;6286972;22;20389;-71
2021/11/21 02:37:47;;;;;;;316.40;54.73;;;9.80;99.90;;;;;;6249386;22;20448;-71
2021/11/21 02:40:17;;;;;;;242.03;36.60;;;9.80;99.90;;;;;;6286825;22;20410;-71
2021/11/21 02:42:46;;;;;;;193.03;33.10;;;9.80;99.90;;;;;;6287325;22;20476;-71
2021/11/21 02:45:17;;;;;;;208.57;37.47;;;9.80;99.90;;;;;;6281617;22;20818;-71
2021/11/21 02:47:46;;;;;;;283.37;42.23;;;9.80;99.90;;;;;;6287340;22;20377;-71
2021/11/21 02:50:17;;;;;;;186.10;38.77;;;9.80;99.90;;;;;;6249598;22;20415;-71
2021/11/21 02:52:49;;;;;;;259.37;49.70;;;9.80;99.90;;;;;;6286287;22;20712;-71
2021/11/21 02:55:17;;;;;;;308.07;53.07;;;9.80;99.90;;;;;;6287189;22;20409;-71
2021/11/21 02:57:46;;;;;;;199.73;46.90;;;9.80;99.90;;;;;;6286713;22;20423;-71
2021/11/21 03:00:16;;;;;;;183.40;29.33;;;9.80;99.90;;;;;;6287097;22;20492;-71
2021/11/21 03:02:47;;;;;;;214.97;38.30;;;9.80;99.90;;;;;;6287096;22;20401;-71
2021/11/21 03:05:17;;;;;;;217.37;42.17;;;9.80;99.90;;;;;;6288392;22;20817;-71
2021/11/21 03:07:48;;;;;;;347.60;52.23;;;9.80;99.90;;;;;;6288711;22;20388;-70
2021/11/21 03:10:19;;;;;;;365.77;47.03;;;9.80;99.90;;;;;;6252006;22;20413;-71
2021/11/21 03:12:49;;;;;;;176.83;42.03;;;9.80;99.90;;;;;;6251278;22;20409;-71
2021/11/21 03:15:18;;;;;;;278.53;51.30;;;9.80;99.90;;;;;;6251103;22;20511;-71
2021/11/21 03:17:46;;;;;;;191.23;39.57;;;9.80;99.90;;;;;;6288527;22;20472;-71
2021/11/21 03:20:16;;;;;;;270.63;54.33;;;9.80;99.90;;;;;;6288469;22;20397;-71
2021/11/21 03:22:44;;;;;;;278.97;52.43;;;9.80;99.90;;;;;;6288785;22;20803;-71
2021/11/21 03:25:15;;;;;;;269.37;67.23;;;9.80;99.90;;;;;;6288704;22;20408;-71
2021/11/21 03:27:44;;;;;;;301.27;49.47;;;9.80;99.90;;;;;;6250978;22;20408;-71
2021/11/21 03:30:14;;;;;;;136.73;29.83;;;9.80;99.90;;;;;;6251193;22;20416;-71
2021/11/21 03:32:43;;;;;;;180.37;39.13;;;9.80;99.90;;;;;;6251207;22;20417;-71
2021/11/21 03:35:12;;;;;;;240.30;56.97;;;9.80;99.90;;;;;;6288549;22;20394;-71
2021/11/21 03:37:41;;;;;;;271.20;43.77;;;9.70;99.90;;;;;;6251432;22;20886;-71
2021/11/21 03:40:13;;;;;;;260.20;47.67;;;9.70;99.90;;;;;;6277979;22;20918;-71
2021/11/21 03:42:42;;;;;;;143.27;32.90;;;9.70;99.90;;;;;;6288625;22;20464;-71
2021/11/21 03:48:51;;;;;;;198.13;42.77;;;9.70;99.90;;;;;;6250572;22;20416;-70
2021/11/21 03:51:19;;;;;;;118.70;32.20;;;9.70;99.90;;;;;;6288092;22;20815;-71
2021/11/21 03:53:47;;;;;;;274.67;40.97;;;9.70;99.90;;;;;;6288008;22;20503;-71
2021/11/21 03:56:16;;;;;;;216.30;40.33;;;9.70;99.90;;;;;;6278182;22;20405;-71
2021/11/21 03:58:45;;;;;;;250.60;45.03;;;9.70;99.90;;;;;;6251372;22;20754;-71
2021/11/21 04:01:14;;;;;;;194.27;42.53;;;9.70;99.90;;;;;;6251146;22;20413;-71
2021/11/21 04:03:43;;;;;;;267.80;41.10;;;9.70;99.90;;;;;;6288070;22;20432;-71
2021/11/21 04:06:12;;;;;;;127.77;31.73;;;9.70;99.90;;;;;;6250620;22;20443;-71
2021/11/21 04:08:41;;;;;;;135.67;28.77;;;9.70;99.90;;;;;;6250461;22;20408;-71
2021/11/21 04:11:10;;;;;;;177.83;34.10;;;9.70;99.90;;;;;;6288345;22;20496;-70
2021/11/21 04:13:38;;;;;;;271.77;40.30;;;9.70;99.90;;;;;;6287925;22;20428;-71
2021/11/21 04:16:08;;;;;;;227.37;27.13;;;9.70;99.90;;;;;;6250364;22;20441;-71
2021/11/21 04:18:36;;;;;;;247.47;36.60;;;9.70;99.90;;;;;;6250478;22;20413;-71
2021/11/21 04:21:04;;;;;;;222.53;33.33;;;9.70;99.90;;;;;;6288258;22;20914;-71
2021/11/21 04:23:32;;;;;;;234.63;31.37;;;9.70;99.90;;;;;;6250474;22;20443;-71
2021/11/21 04:26:01;;;;;;;181.10;29.33;;;9.70;99.90;;;;;;6250430;22;20938;-71
2021/11/21 04:28:29;;;;;;;211.57;30.73;;;9.70;99.90;;;;;;6250578;22;20417;-71
2021/11/21 04:30:58;;;;;;;248.50;31.43;;;9.70;99.90;;;;;;6287832;22;20411;-71
2021/11/21 04:33:27;;;;;;;157.00;27.43;;;9.70;99.90;;;;;;6287614;22;20420;-71
2021/11/21 04:35:56;;;;;;;179.63;27.53;;;9.70;99.90;;;;;;6277502;22;20440;-71
2021/11/21 04:38:24;;;;;;;192.97;29.60;;;9.70;99.90;;;;;;6287707;22;20432;-71
2021/11/21 04:40:53;;;;;;;186.20;27.30;;;9.80;99.90;;;;;;6277783;22;20428;-71
2021/11/21 04:43:22;;;;;;;185.07;36.07;;;9.80;99.90;;;;;;6287671;22;20425;-71
2021/11/21 04:45:53;;;;;;;302.17;37.30;;;9.80;99.90;;;;;;6287637;22;20411;-71
2021/11/21 04:48:21;;;;;;;216.10;34.63;;;9.80;99.90;;;;;;6288001;22;20413;-71
2021/11/21 04:50:52;;;;;;;284.87;39.53;;;9.80;99.90;;;;;;6288278;22;20429;-71
2021/11/21 04:53:20;;;;;;;258.37;30.47;;;9.80;99.90;;;;;;6250932;22;20757;-71
2021/11/21 04:55:48;;;;;;;187.50;30.97;;;9.80;99.90;;;;;;6287597;22;20397;-71
2021/11/21 04:58:16;;;;;;;211.30;29.63;;;9.80;99.90;;;;;;6287504;22;20511;-71
2021/11/21 05:00:46;;;;;;;168.37;24.13;;;9.80;99.90;;;;;;6250092;22;20741;-71
2021/11/21 05:03:14;;;;;;;254.77;41.60;;;9.80;99.90;;;;;;6250226;22;20443;-71
2021/11/21 05:05:42;;;;;;;204.10;31.70;;;9.80;99.90;;;;;;6287546;22;20754;-71
2021/11/21 05:08:12;;;;;;;182.40;30.17;;;9.80;99.90;;;;;;6287585;22;20431;-71
2021/11/21 05:10:40;;;;;;;228.30;34.53;;;9.80;99.90;;;;;;6287422;22;20707;-71
2021/11/21 05:13:08;;;;;;;257.03;38.63;;;9.80;99.90;;;;;;6287390;22;20752;-71
2021/11/21 05:15:36;;;;;;;227.47;31.50;;;9.80;99.90;;;;;;6287486;22;20397;-71
2021/11/21 05:18:04;;;;;;;281.53;32.90;;;9.70;99.90;;;;;;6287476;22;20476;-71
2021/11/21 05:20:32;;;;;;;119.30;29.03;;;9.80;99.90;;;;;;6287287;22;20394;-71
2021/11/21 05:23:00;;;;;;;157.43;19.13;;;9.70;99.90;;;;;;6287246;22;20417;-71
2021/11/21 05:25:30;;;;;;;216.83;28.03;;;9.80;99.90;;;;;;6287320;22;20393;-71
2021/11/21 05:27:58;;;;;;;271.40;33.47;;;9.70;99.90;;;;;;6249857;22;20443;-71
2021/11/21 05:30:26;;;;;;;369.33;37.07;;;9.70;99.90;;;;;;6287135;22;20404;-71
2021/11/21 05:32:55;;;;;;;215.23;33.93;;;9.70;99.90;;;;;;6287444;22;20508;-71
2021/11/21 05:35:23;;;;;;;279.43;36.57;;;9.70;99.90;;;;;;6287256;22;20860;-71
2021/11/21 05:37:51;;;;;;;193.43;29.57;;;9.70;99.90;;;;;;6249763;22;20451;-71
2021/11/21 05:40:20;;;;;;;151.53;28.03;;;9.70;99.90;;;;;;6287444;22;20479;-71
2021/11/21 05:42:50;;;;;;;249.33;36.23;;;9.70;99.90;;;;;;6249745;22;20417;-71
2021/11/21 05:45:18;;;;;;;138.13;28.10;;;9.70;99.90;;;;;;6249550;22;20431;-71
2021/11/21 05:47:46;;;;;;;255.13;30.60;;;9.70;99.90;;;;;;6287089;22;20477;-71
2021/11/21 05:50:14;;;;;;;244.67;39.90;;;9.70;99.90;;;;;;6249864;22;20959;-71
2021/11/21 05:52:44;;;;;;;236.20;30.93;;;9.70;99.90;;;;;;6287257;22;20404;-71
2021/11/21 05:55:13;;;;;;;318.77;29.73;;;9.70;99.90;;;;;;6287315;22;20389;-71
2021/11/21 05:57:42;;;;;;;238.57;28.53;;;9.70;99.90;;;;;;6277195;22;20453;-71
2021/11/21 06:00:15;;;;;;;261.17;32.03;;;9.70;99.90;;;;;;6287261;22;20472;-71
2021/11/21 06:02:43;;;;;;;203.97;23.80;;;9.70;99.90;;;;;;6287112;22;20382;-71
2021/11/21 06:05:12;;;;;;;279.30;37.83;;;9.70;99.90;;;;;;6249815;22;20427;-71
2021/11/21 06:07:40;;;;;;;194.23;24.17;;;9.70;99.90;;;;;;6276555;22;20437;-71
2021/11/21 06:10:10;;;;;;;107.63;14.93;;;9.70;99.90;;;;;;6287068;22;20404;-71
2021/11/21 06:12:38;;;;;;;261.10;31.47;;;9.70;99.90;;;;;;6287234;22;20871;-71
2021/11/21 06:15:09;;;;;;;241.57;32.87;;;9.70;99.90;;;;;;6287012;22;20475;-71
2021/11/21 06:17:38;;;;;;;172.87;28.50;;;9.60;99.90;;;;;;6250331;22;20419;-71
2021/11/21 06:20:08;;;;;;;238.87;33.23;;;9.70;99.90;;;;;;6287329;22;20393;-71
2021/11/21 06:22:37;;;;;;;226.53;33.90;;;9.70;99.90;;;;;;6252431;22;20432;-71
2021/11/21 06:25:06;;;;;;;238.80;28.07;;;9.60;99.90;;;;;;6284802;22;20918;-71
2021/11/21 06:27:34;;;;;;;199.23;31.97;;;9.60;99.90;;;;;;6295027;22;20431;-71
2021/11/21 06:30:02;;;;;;;163.57;30.53;;;9.70;99.90;;;;;;6297741;22;20428;-71
2021/11/21 06:32:30;;;;;;;192.00;20.77;;;9.60;99.90;;;;;;6297166;22;20424;-71
2021/11/21 06:34:59;;;;;;;234.57;33.90;;;9.60;99.90;;;;;;6296320;22;20487;-71
2021/11/21 06:37:28;;;;;;;241.80;33.47;;;9.60;99.90;;;;;;6259748;22;20415;-71
2021/11/21 06:39:56;;;;;;;217.17;33.20;;;9.60;99.90;;;;;;6293289;22;20784;-71
2021/11/21 06:42:24;;;;;;;249.10;25.10;;;9.60;99.90;;;;;;6289918;22;20480;-71
2021/11/21 06:44:52;;;;;;;249.27;28.17;;;9.60;99.90;;;;;;6290379;22;20425;-71
2021/11/21 06:47:22;;;;;;;200.87;26.47;;;9.60;99.90;;;;;;6289115;22;20553;-71
2021/11/21 06:49:51;;;;;;;227.37;29.20;;;9.60;99.90;;;;;;6288692;22;20392;-71
2021/11/21 06:52:22;;;;;;;215.97;26.60;;;9.60;99.90;;;;;;6251312;22;20404;-71
2021/11/21 06:54:50;;;;;;;178.33;22.13;;;9.60;99.90;;;;;;6289376;22;20806;-71
2021/11/21 06:57:19;;;;;;;149.33;21.33;;;9.50;99.90;;;;;;6288708;22;20745;-71
2021/11/21 06:59:47;;;;;;;310.43;37.30;;;9.50;99.90;;;;;;6251306;22;20507;-71
2021/11/21 07:02:15;;;;;;;178.10;25.43;;;9.60;99.90;;;;;;6288629;22;20483;-71
2021/11/21 07:04:43;;;;;;;271.13;34.67;;;9.50;99.90;;;;;;6288561;22;20413;-71
2021/11/21 07:07:12;;;;;;;231.50;33.10;;;9.50;99.90;;;;;;6288780;22;20403;-71
2021/11/21 07:09:44;;;;;;;227.83;22.60;;;9.50;99.90;;;;;;6288576;22;20776;-71
2021/11/21 07:12:12;;;;;;;192.03;31.23;;;9.50;99.90;;;;;;6288594;22;20380;-71
2021/11/21 07:15:01;;;;;;;164.00;27.53;;;9.50;99.90;;;;;;6278635;22;20397;-71
2021/11/21 07:17:29;;;;;;;166.33;28.00;;;9.50;99.90;;;;;;6251211;22;20444;-71
2021/11/21 07:19:58;;;;;;;315.03;38.93;;;9.50;99.90;;;;;;6251033;22;20424;-71
2021/11/21 07:22:26;;;;;;;116.97;23.57;;;9.50;99.90;;;;;;6251041;22;20507;-71
2021/11/21 07:24:55;;;;;;;228.53;37.67;;;9.50;99.90;;;;;;6288411;22;20426;-71
2021/11/21 07:27:23;;;;;;;222.17;37.90;;;9.50;99.90;;;;;;6288346;22;20718;-71
2021/11/21 07:29:51;;;;;;;220.90;30.37;;;9.50;99.90;;;;;;6250937;22;20811;-71
2021/11/21 07:32:20;;;;;;;261.93;37.80;;;9.50;99.90;;;;;;6278139;22;20413;-71
2021/11/21 07:34:48;;;;;;;242.13;33.13;;;9.50;99.90;;;;;;6278381;22;20725;-71
2021/11/21 07:37:16;;;;;;;228.70;40.53;;;9.50;99.90;;;;;;6288011;22;20950;-71
2021/11/21 07:39:44;;;;;;;282.73;40.93;;;9.50;99.90;;;;;;6288296;22;20468;-71
2021/11/21 07:42:13;;;;;;;217.33;31.27;;;9.50;99.90;;;;;;6288400;22;20401;-71
2021/11/21 07:44:41;;;;;;;212.00;26.73;;;9.50;99.90;;;;;;6288069;22;20421;-72
2021/11/21 07:47:10;;;;;;;208.33;27.67;;;9.50;99.90;;;;;;6288296;22;20419;-72
2021/11/21 07:49:38;;;;;;;112.83;19.20;;;9.50;99.90;;;;;;6250842;22;20527;-71
2021/11/21 07:52:06;;;;;;;120.23;19.20;;;9.50;99.90;;;;;;6287531;22;20483;-71
2021/11/21 07:54:34;;;;;;;271.63;28.27;;;9.50;99.90;;;;;;6288863;22;20435;-71
2021/11/21 07:57:02;;;;;;;223.80;26.63;;;9.50;99.90;;;;;;6250818;22;20444;-71
2021/11/21 07:59:32;;;;;;;338.37;38.60;;;9.50;99.90;;;;;;6251332;22;20500;-71
2021/11/21 08:02:00;;;;;;;260.93;38.70;;;9.50;99.90;;;;;;6288058;22;20431;-71
2021/11/21 08:04:29;;;;;;;185.73;23.43;;;9.50;99.90;;;;;;6288321;22;20490;-71
2021/11/21 08:06:57;;;;;;;244.73;32.27;;;9.50;99.90;;;;;;6288208;22;20397;-71
2021/11/21 08:09:26;;;;;;;131.90;27.33;;;9.60;99.90;;;;;;6288223;22;20468;-71
2021/11/21 08:11:54;;;;;;;161.47;32.20;;;9.50;99.90;;;;;;6250620;22;20474;-71
2021/11/21 08:14:22;;;;;;;247.13;33.43;;;9.50;99.90;;;;;;6288676;22;20423;-71
2021/11/21 08:16:51;;;;;;;282.07;35.50;;;9.50;99.90;;;;;;6288413;22;20393;-71
2021/11/21 08:19:20;;;;;;;228.87;32.50;;;9.50;99.90;;;;;;6288178;22;20492;-72
2021/11/21 08:21:48;;;;;;;237.73;31.53;;;9.60;99.90;;;;;;6287833;22;20397;-72
2021/11/21 08:24:16;;;;;;;181.47;37.23;;;9.50;99.90;;;;;;6277764;22;20440;-72
2021/11/21 08:26:44;;;;;;;291.53;35.13;;;9.60;99.90;;;;;;6287882;22;20436;-71
2021/11/21 08:29:12;;;;;;;267.83;39.40;;;9.60;99.90;;;;;;6287629;22;20764;-72
2021/11/21 08:31:59;;;;;;;282.23;37.03;;;9.60;99.90;;;;;;6287867;22;20383;-72
2021/11/21 08:34:29;;;;;;;240.47;30.23;;;9.60;99.90;;;;;;6287849;22;20421;-71
2021/11/21 08:36:57;;;;;;;266.87;36.00;;;9.60;99.90;;;;;;6287851;22;20441;-71
2021/11/21 08:39:26;;;;;;;225.73;24.43;;;9.60;99.90;;;;;;6287542;22;20499;-71
2021/11/21 08:41:56;;;;;;;228.47;31.20;;;9.60;99.90;;;;;;6288023;22;20400;-71
2021/11/21 08:44:25;;;;;;;136.50;24.77;;;9.60;99.90;;;;;;6286262;22;20413;-72
2021/11/21 08:46:53;;;;;;;141.90;21.83;;;9.60;99.90;;;;;;6287844;22;20384;-71
2021/11/21 08:49:23;;;;;;;163.03;25.13;;;9.60;99.90;;;;;;6288291;22;20887;-71
2021/11/21 08:51:51;;;;;;;324.83;38.37;;;9.60;99.90;;;;;;6277620;22;20428;-71
2021/11/21 08:54:20;;;;;;;255.73;42.57;;;9.60;99.90;;;;;;6287793;22;20931;-71
2021/11/21 08:56:50;;;;;;;324.23;43.03;;;9.60;99.90;;;;;;6287586;22;20890;-71
2021/11/21 08:59:19;;;;;;;240.10;33.13;;;9.60;99.90;;;;;;6287550;22;20480;-72
2021/11/21 09:01:48;;;;;;;292.90;38.63;;;9.60;99.90;;;;;;6287208;22;20397;-72
2021/11/21 09:04:17;;;;;;;156.47;23.73;;;9.60;99.90;;;;;;6249777;22;20440;-71
2021/11/21 09:06:47;;;;;;;166.57;28.07;;;9.60;99.90;;;;;;6287520;22;20393;-71
2021/11/21 09:09:15;;;;;;;351.30;33.00;;;9.60;99.90;;;;;;6277257;22;20424;-71
2021/11/21 09:11:44;;;;;;;201.13;28.70;;;9.50;99.90;;;;;;6277406;22;20484;-71
2021/11/21 09:14:12;;;;;;;190.43;32.10;;;9.60;99.90;;;;;;6287324;22;20444;-71
2021/11/21 09:16:42;;;;;;;265.83;31.77;;;9.50;99.90;;;;;;6277014;22;20397;-72
2021/11/21 09:19:10;;;;;;;147.67;21.20;;;9.50;99.90;;;;;;6249907;22;20415;-72
2021/11/21 09:21:38;;;;;;;398.37;42.40;;;9.50;99.90;;;;;;6250025;22;20959;-72
2021/11/21 09:24:08;;;;;;;188.10;28.97;;;9.50;99.90;;;;;;6287190;22;20421;-72
2021/11/21 09:26:36;;;;;;;196.83;25.93;;;9.50;99.90;;;;;;6249983;22;20743;-72
2021/11/21 09:29:05;;;;;;;172.07;19.43;;;9.50;99.90;;;;;;6287280;22;20834;-72
2021/11/21 09:31:33;;;;;;;218.13;22.27;;;9.50;99.90;;;;;;6286893;22;20713;-71
2021/11/21 09:34:01;;;;;;;259.20;29.23;;;9.50;99.90;;;;;;6249833;22;20487;-71
2021/11/21 09:36:29;;;;;;;361.13;39.87;;;9.50;99.90;;;;;;6287259;22;20879;-71
2021/11/21 09:38:57;;;;;;;231.03;20.00;;;9.50;99.90;;;;;;6276913;22;20401;-72
2021/11/21 09:41:27;;;;;;;439.67;47.33;;;9.50;99.90;;;;;;6287398;22;20393;-71
2021/11/21 09:43:58;;;;;;;381.03;36.83;;;9.50;99.90;;;;;;6277159;22;20506;-71
2021/11/21 09:46:26;;;;;;;215.47;21.30;;;9.50;99.90;;;;;;6287117;22;20788;-71
2021/11/21 09:48:54;;;;;;;238.07;25.07;;;9.50;99.90;;;;;;6249687;22;20412;-71
2021/11/21 09:51:22;;;;;;;184.53;24.03;;;9.50;99.90;;;;;;6287135;22;20983;-71
2021/11/21 09:53:51;;;;;;;333.93;35.67;;;9.50;99.90;;;;;;6287196;22;20981;-71
2021/11/21 09:56:19;;;;;;;184.17;20.73;;;9.50;99.90;;;;;;6287095;22;20397;-71
2021/11/21 09:58:48;;;;;;;265.30;34.37;;;9.50;99.90;;;;;;6277211;22;20408;-72
2021/11/21 10:01:34;;;;;;;232.53;31.43;;;9.50;99.90;;;;;;6287027;22;20428;-71
2021/11/21 10:04:02;;;;;;;236.27;19.50;;;9.60;99.90;;;;;;6286974;22;20790;-71
2021/11/21 10:06:34;;;;;;;215.73;26.00;;;9.60;99.90;;;;;;6287482;22;20876;-71
2021/11/21 10:09:04;;;;;;;461.80;39.00;;;9.60;99.90;;;;;;6287373;22;20407;-71
2021/11/21 10:11:32;;;;;;;366.67;39.50;;;9.60;99.90;;;;;;6287279;22;20484;-72
2021/11/21 10:14:06;;;;;;;489.33;50.97;;;9.60;99.90;;;;;;6276142;22;20965;-72
2021/11/21 10:16:35;;;;;;;423.43;39.87;;;9.60;99.90;;;;;;6287678;22;20773;-71
2021/11/21 10:19:06;;;;;;;306.70;43.47;;;9.60;99.90;;;;;;6287169;22;20400;-72
2021/11/21 10:21:36;;;;;;;234.60;35.40;;;9.60;99.90;;;;;;6249261;22;20400;-72
2021/11/21 10:24:13;;;;;;;251.47;27.30;;;9.60;99.90;;;;;;6250047;22;20475;-72
2021/11/21 10:26:42;;;;;;;261.27;32.47;;;9.60;99.90;;;;;;6286935;22;20508;-72
2021/11/21 10:29:30;;;;;;;265.80;36.57;;;9.70;99.90;;;;;;6249228;22;20510;-72
2021/11/21 10:31:58;;;;;;;278.27;31.50;;;9.70;99.90;;;;;;6287464;22;20464;-72
2021/11/21 10:34:27;;;;;;;192.63;21.70;;;9.70;99.90;;;;;;6286728;22;20764;-72
2021/11/21 10:37:07;;;;;;;219.57;31.43;;;9.70;99.90;;;;;;6286882;22;20450;-72
2021/11/21 10:39:51;;;;;;;457.60;39.57;;;9.70;99.90;;;;;;6249506;22;20459;-72
2021/11/21 10:42:24;;;;;;;323.40;46.23;;;9.80;99.90;;;;;;6286870;22;20389;-72
2021/11/21 10:44:54;;;;;;;385.47;45.60;;;9.80;99.90;;;;;;6287114;22;20432;-72
2021/11/21 10:47:22;;;;;;;240.93;20.23;;;9.80;99.90;;;;;;6286933;22;20475;-72
2021/11/21 10:49:52;;;;;;;425.33;42.07;;;9.90;99.90;;;;;;6286498;22;20431;-72
2021/11/21 10:52:22;;;;;;;231.90;29.87;;;9.90;99.90;;;;;;6286871;22;20801;-72
2021/11/21 10:54:52;;;;;;;444.07;52.57;;;9.90;99.90;;;;;;6287922;22;20412;-71
2021/11/21 10:57:23;;;;;;;391.63;40.13;;;9.90;99.90;;;;;;6287811;22;20385;-72
2021/11/21 10:59:53;;;;;;;300.37;41.53;;;10.00;99.90;;;;;;6287229;22;20374;-71
2021/11/21 11:02:25;;;;;;;325.63;37.40;;;10.00;99.90;;;;;;6276919;22;20389;-71
2021/11/21 11:05:03;;;;;;;274.23;31.10;;;10.00;99.90;;;;;;6249318;22;20776;-71
2021/11/21 11:07:35;;;;;;;429.00;45.70;;;10.00;99.90;;;;;;6286595;22;20852;-71
2021/11/21 11:10:06;;;;;;;462.57;47.77;;;10.00;99.90;;;;;;6287075;22;20440;-71
2021/11/21 11:12:35;;;;;;;363.43;42.60;;;10.10;99.90;;;;;;6287202;22;20900;-72
2021/11/21 11:15:05;;;;;;;394.77;45.60;;;10.00;99.90;;;;;;6249539;22;20419;-71
2021/11/21 11:17:35;;;;;;;453.73;51.80;;;10.10;99.90;;;;;;6293046;22;20397;-71
2021/11/21 11:20:07;;;;;;;350.53;49.43;;;10.10;99.90;;;;;;6259273;22;20409;-72
2021/11/21 11:22:36;;;;;;;274.73;31.80;;;10.10;99.90;;;;;;6285226;22;20395;-71
2021/11/21 11:25:09;;;;;;;518.03;52.30;;;10.10;99.90;;;;;;6257807;22;20519;-71
2021/11/21 11:27:45;;;;;;;389.17;42.33;;;10.10;99.90;;;;;;6297251;22;20424;-72
2021/11/21 11:30:15;;;;;;;432.20;53.73;;;10.10;99.90;;;;;;6259908;22;20447;-71
2021/11/21 11:32:46;;;;;;;334.47;37.83;;;10.10;99.90;;;;;;6297870;22;20393;-72
2021/11/21 11:35:32;;;;;;;274.90;32.27;;;10.20;99.90;;;;;;6253095;22;20416;-72
2021/11/21 11:38:17;;;;;;;295.40;26.07;;;10.20;99.90;;;;;;6287606;22;20476;-72
2021/11/21 11:40:52;;;;;;;313.73;29.30;;;10.20;99.90;;;;;;6289100;22;20381;-72
2021/11/21 11:43:38;;;;;;;350.93;49.13;;;10.20;99.90;;;;;;6288745;22;20934;-72
2021/11/21 11:46:28;;;;;;;288.37;27.90;;;10.20;99.90;;;;;;6250801;22;20482;-71
2021/11/21 11:49:00;;;;;;;131.27;21.23;;;10.20;99.90;;;;;;6287819;22;20458;-72
2021/11/21 11:51:53;;;;;;;475.70;55.23;;;10.30;99.90;;;;;;6285104;22;20508;-71
2021/11/21 11:54:31;;;;;;;340.40;56.17;;;10.30;99.90;;;;;;6277027;22;20425;-72
2021/11/21 11:57:08;;;;;;;337.10;39.50;;;10.30;99.90;;;;;;6248540;22;20409;-72
2021/11/21 11:59:39;;;;;;;395.90;46.27;;;10.30;99.90;;;;;;6249869;22;20404;-71
2021/11/21 12:02:13;;;;;;;479.40;57.10;;;10.30;99.90;;;;;;6250266;22;20492;-71
2021/11/21 12:04:57;;;;;;;377.30;58.03;;;10.30;99.90;;;;;;6277623;22;20508;-71
2021/11/21 12:07:31;;;;;;;341.43;52.87;;;10.30;99.90;;;;;;6288463;22;20844;-72
2021/11/21 12:10:22;;;;;;;344.60;49.73;;;10.40;99.90;;;;;;6250459;22;20419;-73
2021/11/21 12:13:11;;;;;;;381.77;42.20;;;10.40;99.90;;;;;;6288044;22;20717;-72
2021/11/21 12:15:50;;;;;;;348.60;68.67;;;10.40;99.90;;;;;;6288823;22;20377;-71
2021/11/21 12:18:20;;;;;;;318.57;37.40;;;10.50;99.90;;;;;;6288567;22;20381;-72
2021/11/21 12:21:20;;;;;;;356.57;50.23;;;10.50;99.90;;;;;;6288702;22;20396;-72
2021/11/21 12:24:28;;;;;;;810.40;92.03;;;10.50;99.90;;;;;;6277382;22;20490;-72
2021/11/21 12:27:29;;;;;;;416.77;80.10;;;10.50;99.90;;;;;;6250199;22;20417;-71
2021/11/21 12:30:06;;;;;;;228.03;45.47;;;10.60;99.90;;;;;;6288318;22;20468;-71
2021/11/21 12:32:44;;;;;;;345.97;62.57;;;10.50;99.90;;;;;;6287709;22;20833;-71
2021/11/21 12:35:23;;;;;;;173.33;38.77;;;10.60;99.90;;;;;;6287855;22;20759;-72
2021/11/21 12:37:53;;;;;;;324.03;57.27;;;10.60;99.90;;;;;;6250572;22;20771;-72
2021/11/21 12:40:28;;;;;;;419.47;81.07;;;10.60;99.90;;;;;;6250398;22;20405;-70
2021/11/21 12:43:01;;;;;;;68.23;25.73;;;10.60;99.90;;;;;;6288377;22;20703;-71
2021/11/21 12:45:31;;;;;;;491.97;80.00;;;10.60;99.90;;;;;;6288026;22;20439;-70